Time;durP1;ratioP1;P1;durP2;ratioP2;P2;SDS_P1;SDS_P2;PMS_P1;PMS_P2;Temp;Humidity;BMP_temperature;BMP_pressure;BME280_temperature;BME280_humidity;BME280_pressure;Samples;Min_cycle;Max_cycle;Signal;HPM_P1;HPM_P2
2022/01/26 00:05:43;;;;;;;60.15;20.60;;;;;;;2.58;100.00;103200.31;5088639;28;20394;-77
2022/01/26 00:06:26;;;;;;;65.07;20.17;;;;;;;2.60;100.00;103208.94;5109576;28;20104;-78
2022/01/26 00:08:52;;;;;;;56.85;18.27;;;;;;;2.39;100.00;103190.34;5106278;28;20032;-78
2022/01/26 00:11:17;;;;;;;48.45;18.23;;;;;;;2.47;100.00;103204.03;5073217;28;20506;-77
2022/01/26 00:13:43;;;;;;;64.95;20.67;;;;;;;2.31;100.00;103187.09;5082554;28;20407;-77
2022/01/26 00:16:15;;;;;;;55.90;19.00;;;;;;;2.30;100.00;103172.34;5069251;28;20471;-77
2022/01/26 00:18:41;;;;;;;68.15;20.23;;;;;;;2.35;100.00;103182.63;5065583;28;20035;-78
2022/01/26 00:21:16;;;;;;;48.17;16.73;;;;;;;2.41;100.00;103196.38;5080882;28;20023;-78
2022/01/26 00:26:48;;;;;;;58.13;16.47;;;;;;;2.35;100.00;103193.94;5079707;28;20480;-78
2022/01/26 00:29:16;;;;;;;;;;;;;;;2.30;100.00;103192.34;5099321;28;20114;-78
2022/01/26 00:40:19;;;;;;;50.17;16.52;;;;;;;2.39;100.00;103198.16;5106889;28;20112;-78
2022/01/26 00:42:48;;;;;;;63.95;19.50;;;;;;;2.38;100.00;103191.25;5087796;28;20471;-78
2022/01/26 00:45:13;;;;;;;54.42;18.45;;;;;;;2.14;100.00;103153.63;5088702;28;20395;-77
2022/01/26 00:47:39;;;;;;;58.22;21.35;;;;;;;2.29;100.00;103173.25;5087962;28;20028;-77
2022/01/26 00:50:09;;;;;;;59.92;18.52;;;;;;;2.35;100.00;103173.09;5105355;28;20028;-77
2022/01/26 00:52:40;;;;;;;62.28;20.52;;;;;;;2.43;100.00;103191.97;5086623;28;20063;-77
2022/01/26 00:55:08;;;;;;;56.50;19.70;;;;;;;2.33;100.00;103180.09;5080100;28;20091;-77
2022/01/26 00:57:34;;;;;;;53.33;18.42;;;;;;;2.39;100.00;103190.34;5109343;28;20466;-77
2022/01/26 01:00:00;;;;;;;57.15;18.10;;;;;;;2.25;100.00;103161.19;5104266;28;20051;-77
2022/01/26 01:02:26;;;;;;;42.50;17.00;;;;;;;2.45;100.00;103179.75;5083346;28;20395;-77
2022/01/26 01:04:53;;;;;;;77.10;22.00;;;;;;;2.25;100.00;103167.25;5099165;28;20023;-77
2022/01/26 01:07:22;;;;;;;57.55;19.65;;;;;;;2.36;100.00;103172.19;5107941;28;20050;-78
2022/01/26 01:09:47;;;;;;;35.95;14.38;;;;;;;2.47;100.00;103179.72;5106968;28;20503;-77
2022/01/26 01:12:12;;;;;;;56.35;19.20;;;;;;;2.36;100.00;103148.72;5098385;28;20042;-77
2022/01/26 01:14:41;;;;;;;49.40;17.05;;;;;;;2.52;100.00;103175.25;5048560;28;20067;-77
2022/01/26 01:17:11;;;;;;;47.42;15.85;;;;;;;2.44;100.00;103152.00;5100557;28;20034;-78
2022/01/26 01:19:46;;;;;;;51.50;17.63;;;;;;;2.58;100.00;103161.19;5066442;28;20054;-78
2022/01/26 01:30:05;;;;;;;56.25;17.95;;;;;;;2.58;100.00;103137.72;5096284;28;20032;-77
2022/01/26 01:32:39;;;;;;;48.55;16.67;;;;;;;2.60;100.00;103128.13;5082516;28;20228;-77
2022/01/26 01:35:08;;;;;;;52.30;18.55;;;;;;;2.59;100.00;103139.44;5066422;28;20032;-77
2022/01/26 01:37:34;;;;;;;43.50;17.10;;;;;;;2.56;100.00;103129.94;5099467;28;20020;-77
2022/01/26 01:39:59;;;;;;;52.28;17.38;;;;;;;2.66;100.00;103148.81;5100263;28;20024;-77
2022/01/26 01:42:25;;;;;;;41.38;15.13;;;;;;;2.55;100.00;103125.66;5084587;28;20025;-77
2022/01/26 01:44:51;;;;;;;53.42;18.08;;;;;;;2.56;100.00;103134.31;5081317;28;20470;-77
2022/01/26 01:47:16;;;;;;;56.33;16.23;;;;;;;2.70;100.00;103149.56;5087554;28;20012;-77
2022/01/26 01:49:42;;;;;;;48.90;18.98;;;;;;;2.54;100.00;103123.06;5087426;28;20024;-77
2022/01/26 01:52:13;;;;;;;55.03;19.42;;;;;;;2.39;100.00;103101.72;5099483;28;20466;-78
2022/01/26 01:54:40;;;;;;;60.60;21.35;;;;;;;2.42;100.00;103129.47;5079702;28;20035;-77
2022/01/26 01:57:06;;;;;;;60.38;20.92;;;;;;;2.17;100.00;103082.38;5081296;28;20051;-77
2022/01/26 01:59:33;;;;;;;60.85;19.80;;;;;;;1.91;100.00;103062.19;5098806;28;20510;-77
2022/01/26 02:02:00;;;;;;;69.90;22.00;;;;;;;2.12;100.00;103092.06;5078498;28;20043;-75
2022/01/26 02:04:26;;;;;;;46.38;19.15;;;;;;;2.28;100.00;103113.34;5081285;28;20024;-75
2022/01/26 02:06:51;;;;;;;58.50;19.38;;;;;;;2.34;100.00;103107.97;5098555;28;20150;-76
2022/01/26 02:09:17;;;;;;;53.28;18.30;;;;;;;2.25;100.00;103091.69;5100077;28;20043;-76
2022/01/26 02:11:54;;;;;;;56.15;18.50;;;;;;;2.25;100.00;103093.44;5084443;28;20518;-76
2022/01/26 02:14:26;;;;;;;53.13;17.70;;;;;;;2.11;100.00;103064.28;5087878;28;20498;-75
2022/01/26 02:17:08;;;;;;;56.28;19.30;;;;;;;2.01;100.00;103074.09;5082929;28;20055;-75
2022/01/26 02:50:34;;;;;;;48.15;17.42;;;;;;;2.12;100.00;103077.28;5097131;28;20035;-75
2022/01/26 02:55:37;;;;;;;50.05;17.38;;;;;;;2.27;100.00;103089.03;5082374;28;20368;-76
2022/01/26 02:58:34;;;;;;;52.90;17.52;;;;;;;2.14;100.00;103048.59;5085627;28;20036;-75
2022/01/26 03:06:28;;;;;;;49.92;16.92;;;;;;;2.34;100.00;103081.91;5068834;28;20046;-74
2022/01/26 03:09:00;;;;;;;57.80;20.58;;;;;;;2.44;100.00;103086.00;5100396;28;20042;-75
2022/01/26 03:11:28;;;;;;;51.90;17.90;;;;;;;2.32;100.00;103079.34;5082452;28;20032;-75
2022/01/26 03:14:03;;;;;;;47.80;17.83;;;;;;;2.44;100.00;103097.25;5083566;28;20167;-75
2022/01/26 03:16:38;;;;;;;55.42;19.42;;;;;;;2.44;100.00;103089.44;5099089;28;20024;-75
2022/01/26 03:19:17;;;;;;;57.90;19.08;;;;;;;2.40;100.00;103081.75;5068778;28;20035;-75
2022/01/26 03:30:02;;;;;;;58.78;17.92;;;;;;;2.26;100.00;103053.44;5102259;28;20050;-75
2022/01/26 03:35:28;;;;;;;62.33;22.73;;;;;;;2.21;100.00;103086.59;5101498;28;20046;-75
2022/01/26 03:37:55;;;;;;;55.55;20.48;;;;;;;2.30;100.00;103101.13;5100287;28;20146;-75
2022/01/26 03:40:29;;;;;;;72.72;21.63;;;;;;;2.14;100.00;103085.91;5082418;28;20061;-76
2022/01/26 03:42:55;;;;;;;75.28;25.13;;;;;;;2.19;100.00;103098.81;5102284;27;20028;-76
2022/01/26 03:45:21;;;;;;;54.38;19.08;;;;;;;2.19;100.00;103093.59;5100158;28;20119;-75
2022/01/26 03:47:46;;;;;;;67.90;21.08;;;;;;;2.11;100.00;103066.88;5100186;28;20020;-75
2022/01/26 03:50:11;;;;;;;66.05;20.23;;;;;;;2.10;100.00;103080.81;5080815;28;20529;-75
2022/01/26 03:52:37;;;;;;;53.35;18.50;;;;;;;2.09;100.00;103086.91;5082074;28;20106;-75
2022/01/26 03:55:04;;;;;;;56.10;19.63;;;;;;;2.16;100.00;103093.69;5100295;28;20028;-75
2022/01/26 03:57:30;;;;;;;57.35;19.13;;;;;;;2.19;100.00;103093.59;5098517;28;20062;-75
2022/01/26 03:59:55;;;;;;;65.82;23.70;;;;;;;2.05;100.00;103073.97;5099206;28;20454;-75
2022/01/26 04:02:20;;;;;;;59.85;19.13;;;;;;;2.15;100.00;103091.97;5064504;28;20392;-76
2022/01/26 04:04:51;;;;;;;75.70;23.50;;;;;;;1.90;100.00;103045.72;5079175;28;20043;-75
2022/01/26 04:07:17;;;;;;;60.97;18.35;;;;;;;2.12;100.00;103079.03;5073609;28;20027;-75
2022/01/26 04:09:42;;;;;;;61.45;22.23;;;;;;;2.10;100.00;103062.59;5066346;28;20067;-75
2022/01/26 04:12:08;;;;;;;66.63;25.25;;;;;;;1.95;100.00;103049.06;5083585;28;20123;-75
2022/01/26 04:14:35;;;;;;;60.50;20.08;;;;;;;2.06;100.00;103057.44;5079634;28;20020;-75
2022/01/26 04:17:00;;;;;;;62.13;21.02;;;;;;;2.02;100.00;103029.75;5079232;28;20695;-75
2022/01/26 04:19:28;;;;;;;47.55;17.83;;;;;;;1.95;100.00;103036.03;5066437;28;20028;-75
2022/01/26 04:24:43;;;;;;;68.20;22.92;;;;;;;1.91;100.00;103034.41;5081242;28;20039;-75
2022/01/26 04:27:30;;;;;;;52.53;19.98;;;;;;;1.83;100.00;103020.75;5083994;28;20055;-75
2022/01/26 04:29:55;;;;;;;58.25;19.70;;;;;;;1.89;100.00;103037.94;5080060;28;20027;-76
2022/01/26 04:32:21;;;;;;;55.97;19.48;;;;;;;1.88;100.00;103026.69;5084530;28;20039;-76
2022/01/26 04:34:48;;;;;;;56.42;19.27;;;;;;;1.82;100.00;103016.44;5096744;28;20479;-76
2022/01/26 04:37:48;;;;;;;67.03;21.55;;;;;;;1.75;100.00;103005.31;5099045;28;20031;-75
2022/01/26 04:40:16;;;;;;;61.03;19.50;;;;;;;1.82;100.00;103006.00;5099139;28;20031;-76
2022/01/26 04:42:52;;;;;;;62.05;20.80;;;;;;;1.78;100.00;103001.78;5080464;28;20078;-76
2022/01/26 04:45:18;;;;;;;69.43;22.17;;;;;;;1.74;100.00;103008.84;5065706;28;20031;-75
2022/01/26 04:47:43;;;;;;;57.10;18.27;;;;;;;1.67;100.00;102980.38;5098545;28;20514;-75
2022/01/26 04:50:10;;;;;;;49.97;17.98;;;;;;;1.78;100.00;102999.16;5078916;28;20395;-75
2022/01/26 04:52:36;;;;;;;54.65;20.50;;;;;;;1.76;100.00;102985.34;5079148;28;20467;-75
2022/01/26 04:55:02;;;;;;;54.55;17.08;;;;;;;1.68;100.00;102971.66;5097970;28;20031;-75
2022/01/26 04:57:28;;;;;;;56.80;19.27;;;;;;;1.76;100.00;103003.56;5082174;28;20040;-75
2022/01/26 04:59:53;;;;;;;43.72;16.25;;;;;;;1.76;100.00;102996.59;5097877;28;20063;-75
2022/01/26 05:02:19;;;;;;;66.65;21.42;;;;;;;1.52;100.00;102972.06;5079036;28;20060;-75
2022/01/26 05:04:44;;;;;;;41.15;16.20;;;;;;;1.63;100.00;102990.88;5079595;28;20039;-75
2022/01/26 05:07:09;;;;;;;51.63;17.38;;;;;;;1.74;100.00;103007.94;5079294;28;20073;-75
2022/01/26 05:09:36;;;;;;;56.63;18.27;;;;;;;1.74;100.00;103021.84;5080365;28;20125;-75
2022/01/26 05:12:02;;;;;;;46.05;15.68;;;;;;;1.74;100.00;103020.97;5079383;28;20039;-75
2022/01/26 05:14:28;;;;;;;59.05;18.83;;;;;;;1.60;100.00;102993.53;5096908;28;20016;-75
2022/01/26 05:16:53;;;;;;;38.28;14.70;;;;;;;1.75;100.00;102999.25;5096418;28;20020;-76
2022/01/26 05:19:19;;;;;;;62.72;20.88;;;;;;;1.77;100.00;103015.69;5065163;28;20341;-76
2022/01/26 05:21:44;;;;;;;59.33;17.90;;;;;;;1.81;100.00;102999.09;5079507;28;20030;-76
2022/01/26 05:24:10;;;;;;;66.43;19.50;;;;;;;1.71;100.00;102990.66;5079173;28;20085;-76
2022/01/26 05:26:38;;;;;;;53.03;17.00;;;;;;;1.70;100.00;102991.56;5097890;28;20020;-76
2022/01/26 05:29:03;;;;;;;54.97;19.70;;;;;;;1.58;100.00;102971.91;5079456;28;20043;-76
2022/01/26 05:31:29;;;;;;;51.53;17.48;;;;;;;1.51;100.00;102967.75;5095171;28;20028;-76
2022/01/26 05:33:54;;;;;;;50.80;17.73;;;;;;;1.48;100.00;102967.84;5063043;28;20407;-76
2022/01/26 05:36:20;;;;;;;48.45;17.23;;;;;;;1.62;100.00;102967.50;5076281;28;20024;-76
2022/01/26 05:38:45;;;;;;;49.05;18.88;;;;;;;1.64;100.00;102992.56;5049998;28;20036;-76
2022/01/26 05:41:11;;;;;;;54.53;16.92;;;;;;;1.59;100.00;102989.25;5097925;28;20059;-76
2022/01/26 05:43:36;;;;;;;47.95;17.05;;;;;;;1.73;100.00;102990.63;5063697;28;20568;-75
2022/01/26 05:46:08;;;;;;;50.55;18.45;;;;;;;1.75;100.00;102988.84;5077556;28;20099;-75
2022/01/26 05:48:35;;;;;;;56.38;17.70;;;;;;;1.68;100.00;102982.06;5081386;28;20051;-75
2022/01/26 05:51:06;;;;;;;47.25;15.45;;;;;;;1.63;100.00;102962.25;5095320;28;20136;-75
2022/01/26 05:53:33;;;;;;;48.17;17.92;;;;;;;1.79;100.00;102986.13;5064615;28;20467;-75
2022/01/26 05:55:59;;;;;;;53.28;17.80;;;;;;;1.62;100.00;102952.72;5076898;28;20063;-75
2022/01/26 05:58:25;;;;;;;42.90;17.08;;;;;;;1.67;100.00;102975.19;5097337;28;20051;-75
2022/01/26 06:00:50;;;;;;;50.45;18.42;;;;;;;1.74;100.00;102976.72;5080288;28;20032;-75
2022/01/26 06:03:16;;;;;;;37.88;16.85;;;;;;;1.62;100.00;102962.28;5097836;28;20030;-75
2022/01/26 06:05:41;;;;;;;41.88;16.45;;;;;;;1.54;100.00;102959.00;5062727;28;20085;-75
2022/01/26 06:08:07;;;;;;;50.60;17.23;;;;;;;1.62;100.00;102963.13;5097923;28;20036;-75
2022/01/26 06:10:33;;;;;;;42.95;16.98;;;;;;;1.76;100.00;102985.34;5077312;28;20024;-75
2022/01/26 06:12:59;;;;;;;55.05;16.98;;;;;;;1.46;100.00;102929.72;5090578;28;20051;-75
2022/01/26 06:15:24;;;;;;;44.88;15.43;;;;;;;1.88;100.00;102990.22;5091459;28;20121;-75
2022/01/26 06:17:50;;;;;;;40.67;14.73;;;;;;;1.96;100.00;102987.41;5090859;28;20024;-76
2022/01/26 06:20:15;;;;;;;43.05;15.10;;;;;;;1.90;100.00;102996.25;5073784;28;20024;-76
2022/01/26 06:22:41;;;;;;;46.58;17.55;;;;;;;1.90;100.00;102988.44;5068808;28;20034;-76
2022/01/26 06:25:08;;;;;;;45.30;17.30;;;;;;;2.00;100.00;103008.16;5054279;28;20028;-76
2022/01/26 06:27:35;;;;;;;42.08;14.23;;;;;;;1.99;100.00;103006.41;5068673;28;20544;-75
2022/01/26 06:30:01;;;;;;;42.78;16.08;;;;;;;1.96;100.00;103003.91;5073995;28;20028;-75
2022/01/26 06:32:27;;;;;;;36.20;14.15;;;;;;;1.92;100.00;102998.81;5070882;28;20472;-75
2022/01/26 06:34:53;;;;;;;40.97;15.85;;;;;;;1.75;100.00;102960.22;5088922;28;20136;-76
2022/01/26 06:37:19;;;;;;;49.13;16.83;;;;;;;1.98;100.00;102981.28;5046032;28;20127;-76
2022/01/26 06:39:45;;;;;;;49.13;15.15;;;;;;;1.98;100.00;102973.47;5072891;28;20042;-76
2022/01/26 06:42:14;;;;;;;60.05;19.70;;;;;;;1.94;100.00;102979.66;5084401;28;20027;-75
2022/01/26 06:47:34;;;;;;;48.10;19.42;;;;;;;1.71;100.00;102966.41;5086372;28;20078;-77
2022/01/26 06:49:59;;;;;;;53.55;18.08;;;;;;;1.82;100.00;102964.34;5093465;28;20582;-76
2022/01/26 06:52:25;;;;;;;47.13;17.08;;;;;;;1.77;100.00;102955.81;5077093;28;20123;-76
2022/01/26 06:54:50;;;;;;;50.35;16.75;;;;;;;1.97;100.00;102984.78;5093667;28;20034;-77
2022/01/26 06:57:16;;;;;;;46.65;17.42;;;;;;;2.02;100.00;102982.03;5089827;28;20024;-76
2022/01/26 06:59:41;;;;;;;49.80;18.50;;;;;;;1.75;100.00;102949.81;5074251;28;20504;-75
2022/01/26 07:02:07;;;;;;;37.65;15.68;;;;;;;1.87;100.00;102966.81;5073445;28;20475;-76
2022/01/26 07:04:33;;;;;;;46.08;17.23;;;;;;;1.81;100.00;102983.50;5074694;28;20043;-76
2022/01/26 07:06:58;;;;;;;46.40;17.88;;;;;;;1.96;100.00;103003.91;5063491;28;20372;-76
2022/01/26 07:09:23;;;;;;;55.45;21.77;;;;;;;1.77;100.00;102963.63;5065736;28;20039;-76
2022/01/26 07:11:49;;;;;;;44.95;17.67;;;;;;;1.89;100.00;102978.06;5064176;28;20031;-76
2022/01/26 07:19:51;;;;;;;49.63;18.50;;;;;;;1.91;100.00;102979.72;5082398;28;20523;-76
2022/01/26 07:22:16;;;;;;;41.33;16.40;;;;;;;1.92;100.00;102975.38;5067341;28;20027;-76
2022/01/26 07:24:41;;;;;;;44.58;18.17;;;;;;;1.98;100.00;102985.63;5062457;28;20422;-76
2022/01/26 07:27:07;;;;;;;61.20;22.60;;;;;;;1.80;100.00;102951.38;5077679;28;21241;-76
2022/01/26 07:29:33;;;;;;;56.40;21.52;;;;;;;1.84;100.00;102973.81;5062950;28;20031;-76
2022/01/26 07:31:58;;;;;;;60.10;25.48;;;;;;;1.82;100.00;102964.34;5077711;28;20136;-76
2022/01/26 07:34:24;;;;;;;48.08;17.60;;;;;;;2.00;100.00;102995.13;5064426;28;20028;-76
2022/01/26 07:36:52;;;;;;;49.38;21.25;;;;;;;2.04;100.00;102996.72;5100500;28;20040;-76
2022/01/26 07:39:29;;;;;;;45.63;18.25;;;;;;;1.96;100.00;102967.44;5081966;28;20039;-76
2022/01/26 07:41:55;;;;;;;54.35;19.80;;;;;;;1.96;100.00;102972.66;5096997;27;20023;-76
2022/01/26 07:44:20;;;;;;;47.22;16.90;;;;;;;1.99;100.00;102971.72;5097263;28;20090;-76
2022/01/26 07:46:46;;;;;;;50.22;17.85;;;;;;;2.12;100.00;102990.47;5074128;28;20487;-76
2022/01/26 07:49:11;;;;;;;60.88;18.35;;;;;;;1.98;100.00;102983.88;5079646;28;20036;-75
2022/01/26 07:51:36;;;;;;;41.80;16.65;;;;;;;2.03;100.00;102991.56;5092725;28;20035;-75
2022/01/26 07:54:02;;;;;;;52.45;18.35;;;;;;;2.13;100.00;102995.59;5097217;28;20067;-75
2022/01/26 07:56:29;;;;;;;54.10;16.60;;;;;;;2.11;100.00;102988.75;5076631;28;20032;-75
2022/01/26 07:58:54;;;;;;;45.33;17.88;;;;;;;1.94;100.00;102955.34;5091735;28;20055;-75
2022/01/26 08:01:20;;;;;;;46.83;18.38;;;;;;;2.09;100.00;102982.72;5091650;28;20031;-75
2022/01/26 08:03:45;;;;;;;42.03;17.00;;;;;;;2.14;100.00;102975.66;5056162;28;20039;-75
2022/01/26 08:06:17;;;;;;;47.20;18.08;;;;;;;2.15;100.00;102983.41;5061454;28;20036;-75
2022/01/26 08:08:43;;;;;;;52.05;18.42;;;;;;;2.05;100.00;102966.34;5061537;28;20024;-75
2022/01/26 08:11:09;;;;;;;46.92;16.15;;;;;;;2.18;100.00;102978.13;5075371;27;20026;-75
2022/01/26 08:13:35;;;;;;;48.58;15.55;;;;;;;2.25;100.00;102999.66;5094578;28;20110;-75
2022/01/26 08:16:00;;;;;;;43.33;16.15;;;;;;;2.29;100.00;103005.59;5074884;28;20027;-75
2022/01/26 08:18:26;;;;;;;48.35;19.20;;;;;;;2.25;100.00;103015.28;5092206;28;20032;-75
2022/01/26 08:20:52;;;;;;;56.53;19.58;;;;;;;2.26;100.00;103009.16;5076993;28;20036;-75
2022/01/26 08:23:20;;;;;;;51.53;17.33;;;;;;;2.20;100.00;102991.09;5091931;28;20028;-75
2022/01/26 08:25:46;;;;;;;42.70;17.27;;;;;;;2.20;100.00;102975.44;5097822;28;20073;-75
2022/01/26 08:28:20;;;;;;;47.88;16.92;;;;;;;2.34;100.00;102988.94;5078109;28;20506;-75
2022/01/26 08:30:45;;;;;;;47.80;19.15;;;;;;;2.18;100.00;102966.84;5054966;28;20036;-75
2022/01/26 08:33:11;;;;;;;48.55;18.70;;;;;;;2.24;100.00;102977.06;5073417;28;20055;-75
2022/01/26 08:35:37;;;;;;;38.05;16.52;;;;;;;2.35;100.00;102995.88;5076450;28;20096;-76
2022/01/26 08:38:03;;;;;;;44.08;18.58;;;;;;;2.40;100.00;102994.00;5092872;28;20039;-76
2022/01/26 08:40:28;;;;;;;49.55;17.75;;;;;;;2.40;100.00;102991.38;5093425;28;20031;-76
2022/01/26 08:42:55;;;;;;;43.53;18.10;;;;;;;2.45;100.00;102986.03;5076835;28;20024;-76
2022/01/26 08:45:20;;;;;;;50.85;21.05;;;;;;;2.42;100.00;102981.78;5071258;28;20036;-76
2022/01/26 08:47:47;;;;;;;48.25;17.02;;;;;;;2.35;100.00;102974.16;5074739;28;20020;-76
2022/01/26 08:50:13;;;;;;;52.42;18.33;;;;;;;2.33;100.00;102968.13;5066736;28;20035;-75
2022/01/26 08:52:39;;;;;;;48.00;19.75;;;;;;;2.23;100.00;102960.59;5056289;28;20032;-75
2022/01/26 08:55:05;;;;;;;50.05;20.13;;;;;;;2.34;100.00;102978.53;5092733;28;20541;-76
2022/01/26 08:57:30;;;;;;;45.55;20.00;;;;;;;2.43;100.00;102975.66;5069618;28;20031;-75
2022/01/26 08:59:56;;;;;;;54.92;18.58;;;;;;;2.47;100.00;102969.44;5078480;28;20480;-76
2022/01/26 09:02:23;;;;;;;53.08;18.65;;;;;;;2.46;100.00;102978.19;5071802;28;20048;-75
2022/01/26 09:04:48;;;;;;;48.30;19.35;;;;;;;2.54;100.00;102995.34;5093399;28;20145;-76
2022/01/26 09:07:16;;;;;;;53.20;20.73;;;;;;;2.44;100.00;102986.94;5063993;28;20621;-76
2022/01/26 09:09:44;;;;;;;53.17;20.15;;;;;;;2.57;100.00;103013.47;5076426;28;20127;-76
2022/01/26 09:12:12;;;;;;;61.83;23.98;;;;;;;2.45;100.00;102997.31;5074010;28;20024;-76
2022/01/26 09:14:38;;;;;;;67.72;26.42;;;;;;;2.33;100.00;103000.28;5074136;28;20122;-76
2022/01/26 09:17:05;;;;;;;44.92;19.17;;;;;;;2.47;100.00;103021.56;5059828;28;20119;-76
2022/01/26 09:19:32;;;;;;;61.75;24.27;;;;;;;2.45;100.00;103007.72;5095902;27;20078;-76
2022/01/26 09:22:06;;;;;;;64.25;21.98;;;;;;;2.53;100.00;102996.25;5082578;28;20475;-76
2022/01/26 09:24:34;;;;;;;62.25;25.30;;;;;;;2.51;100.00;102998.03;5083358;28;20047;-78
2022/01/26 09:27:01;;;;;;;59.80;23.35;;;;;;;2.44;100.00;102985.19;5103896;28;20028;-77
2022/01/26 09:29:27;;;;;;;49.97;21.38;;;;;;;2.42;100.00;102991.34;5083119;28;20084;-77
2022/01/26 09:31:53;;;;;;;49.22;21.20;;;;;;;2.40;100.00;102994.00;5103584;28;20027;-77
2022/01/26 09:34:21;;;;;;;65.60;23.83;;;;;;;2.39;100.00;102992.25;5083589;28;20111;-77
2022/01/26 09:36:46;;;;;;;57.17;22.58;;;;;;;2.46;100.00;102993.81;5094506;28;20884;-77
2022/01/26 09:39:14;;;;;;;54.63;20.90;;;;;;;2.48;100.00;102996.34;5058244;28;20038;-78
2022/01/26 09:41:40;;;;;;;67.43;20.80;;;;;;;2.46;100.00;102982.50;5077458;28;20084;-77
2022/01/26 09:44:06;;;;;;;53.45;20.23;;;;;;;2.47;100.00;102972.06;5076259;28;20031;-77
2022/01/26 09:46:33;;;;;;;59.40;20.88;;;;;;;2.50;100.00;102962.44;5058803;28;20024;-77
2022/01/26 09:48:58;;;;;;;57.20;22.08;;;;;;;2.20;100.00;102937.25;5075506;28;20016;-77
2022/01/26 09:51:24;;;;;;;60.03;22.25;;;;;;;2.54;100.00;102982.31;5093691;28;20027;-77
2022/01/26 09:54:04;;;;;;;48.15;21.15;;;;;;;2.65;100.00;102988.91;5093531;28;20111;-77
2022/01/26 09:56:30;;;;;;;57.67;22.95;;;;;;;2.67;100.00;102991.47;5083007;28;20024;-77
2022/01/26 09:58:56;;;;;;;56.25;21.10;;;;;;;2.73;100.00;102990.44;5074969;28;20073;-77
2022/01/26 10:01:22;;;;;;;45.50;19.98;;;;;;;2.79;100.00;102992.88;5100349;28;20434;-77
2022/01/26 10:03:50;;;;;;;52.92;20.13;;;;;;;2.81;100.00;102996.25;5100201;28;20093;-77
2022/01/26 10:06:27;;;;;;;57.25;20.73;;;;;;;2.91;100.00;102994.22;5079591;28;20399;-76
2022/01/26 10:09:28;;;;;;;52.15;20.00;;;;;;;2.97;100.00;102999.25;5069472;28;20077;-77
2022/01/26 10:17:30;;;;;;;46.22;19.98;;;;;;;2.87;100.00;102983.91;5093771;28;20063;-77
2022/01/26 10:20:01;;;;;;;49.35;19.60;;;;;;;3.05;100.00;103005.94;5082916;28;20745;-77
2022/01/26 10:22:32;;;;;;;42.20;16.80;;;;;;;3.12;100.00;103009.22;5077328;28;20603;-77
2022/01/26 10:25:08;;;;;;;56.90;19.63;;;;;;;3.15;100.00;102990.84;5103283;28;20095;-77
2022/01/26 10:27:42;;;;;;;45.70;17.80;;;;;;;3.16;100.00;102992.56;5094300;28;20063;-77
2022/01/26 10:30:11;;;;;;;48.45;18.35;;;;;;;3.21;100.00;102985.44;5099730;28;20028;-77
2022/01/26 10:32:37;;;;;;;41.50;16.50;;;;;;;3.30;100.00;102997.31;5088314;28;20027;-77
2022/01/26 10:35:04;;;;;;;49.15;19.38;;;;;;;3.36;100.00;103004.13;5096672;28;20031;-77
2022/01/26 10:37:30;;;;;;;48.88;18.20;;;;;;;3.37;100.00;102996.22;5105080;28;20020;-77
2022/01/26 10:40:16;;;;;;;46.70;19.05;;;;;;;3.40;100.00;103005.72;5105114;28;20129;-77
2022/01/26 10:43:08;;;;;;;40.90;16.35;;;;;;;3.45;100.00;103001.19;5089831;28;20133;-77
2022/01/26 10:46:04;;;;;;;49.65;17.67;;;;;;;3.43;100.00;103003.84;5081062;27;20039;-77
2022/01/26 10:48:39;;;;;;;45.40;16.88;;;;;;;3.41;100.00;102983.94;5104075;28;20122;-77
2022/01/26 10:53:49;;;;;;;41.47;16.45;;;;;;;3.48;100.00;102990.63;5106303;28;20519;-77
2022/01/26 10:56:16;;;;;;;41.25;16.70;;;;;;;3.47;100.00;102979.34;5081107;28;20070;-77
2022/01/26 10:58:42;;;;;;;41.47;18.00;;;;;;;3.47;100.00;102981.13;5098324;28;20024;-77
2022/01/26 11:01:08;;;;;;;47.88;18.15;;;;;;;3.40;100.00;102958.75;5078466;28;20036;-77
2022/01/26 11:03:34;;;;;;;48.15;18.05;;;;;;;3.29;100.00;102943.44;5096303;28;20089;-77
2022/01/26 11:06:03;;;;;;;45.83;17.13;;;;;;;3.42;100.00;102957.78;5101614;28;20024;-77
2022/01/26 11:08:30;;;;;;;43.47;18.42;;;;;;;3.33;100.00;102939.78;5086999;28;20024;-77
2022/01/26 11:10:56;;;;;;;44.13;16.88;;;;;;;3.46;100.00;102964.59;5095003;27;20111;-77
2022/01/26 11:13:27;;;;;;;45.75;16.83;;;;;;;3.36;100.00;102944.09;5071127;28;20122;-77
2022/01/26 11:15:53;;;;;;;45.67;17.80;;;;;;;3.39;100.00;102934.38;5059521;28;21021;-77
2022/01/26 11:18:22;;;;;;;51.65;16.63;;;;;;;3.49;100.00;102947.97;5080082;28;20077;-77
2022/01/26 11:20:52;;;;;;;48.05;16.55;;;;;;;3.56;100.00;102953.84;5094532;28;20028;-77
2022/01/26 11:23:40;;;;;;;43.35;16.95;;;;;;;3.50;100.00;102947.91;5096094;28;20059;-78
2022/01/26 11:26:06;;;;;;;39.50;15.70;;;;;;;3.55;100.00;102941.69;5086142;28;20038;-77
2022/01/26 11:28:32;;;;;;;46.10;16.77;;;;;;;3.42;100.00;102920.34;5080319;28;20457;-77
2022/01/26 11:31:04;;;;;;;43.15;16.35;;;;;;;3.50;100.00;102927.03;5084789;28;20020;-77
2022/01/26 11:33:33;;;;;;;45.20;16.35;;;;;;;3.57;100.00;102932.91;5078551;28;20030;-77
2022/01/26 11:36:00;;;;;;;36.97;15.30;;;;;;;3.72;100.00;102952.38;5106478;28;20024;-77
2022/01/26 11:46:35;;;;;;;47.00;17.50;;;;;;;3.74;100.00;102923.63;5091468;28;20051;-77
2022/01/26 11:49:05;;;;;;;49.97;17.23;;;;;;;3.70;100.00;102944.63;5106756;28;20142;-77
2022/01/26 11:51:44;;;;;;;35.70;15.45;;;;;;;3.75;100.00;102933.16;5098877;28;20031;-77
2022/01/26 11:54:22;;;;;;;39.15;15.60;;;;;;;3.57;100.00;102906.81;5092076;27;20523;-77
2022/01/26 11:57:08;;;;;;;58.03;22.80;;;;;;;3.63;100.00;102932.66;5100360;28;20024;-75
2022/01/26 11:59:36;;;;;;;63.40;22.15;;;;;;;3.73;100.00;102938.44;5095463;28;20138;-76
2022/01/26 12:02:09;;;;;;;63.88;21.75;;;;;;;3.71;100.00;102921.97;5096966;28;20027;-75
2022/01/26 12:04:37;;;;;;;47.95;18.80;;;;;;;3.68;100.00;102904.66;5075000;28;20031;-75
2022/01/26 12:07:19;;;;;;;53.95;19.63;;;;;;;3.64;100.00;102891.75;5066156;28;20378;-75
2022/01/26 12:09:44;;;;;;;52.05;19.90;;;;;;;3.66;100.00;102898.63;5099029;28;20031;-76
2022/01/26 12:12:22;;;;;;;38.35;14.88;;;;;;;3.69;100.00;102895.91;5065900;28;20050;-76
2022/01/26 12:15:01;;;;;;;45.38;16.20;;;;;;;3.80;100.00;102907.72;5096011;28;20127;-76
2022/01/26 12:17:32;;;;;;;43.03;17.20;;;;;;;3.69;100.00;102893.28;5103244;28;20043;-79
2022/01/26 12:20:12;;;;;;;39.90;16.58;;;;;;;3.70;100.00;102889.78;5084964;28;20143;-76
2022/01/26 12:34:21;;;;;;;44.90;16.35;;;;;;;3.73;100.00;102886.22;5102018;28;20039;-76
2022/01/26 12:37:00;;;;;;;41.85;15.18;;;;;;;3.76;100.00;102874.78;5093661;28;20040;-76
2022/01/26 12:42:12;;;;;;;44.97;18.55;;;;;;;3.65;100.00;102878.63;5079044;28;20094;-75
2022/01/26 12:44:38;;;;;;;43.78;16.88;;;;;;;3.78;100.00;102904.31;5096929;28;20185;-76
2022/01/26 12:47:04;;;;;;;47.63;16.30;;;;;;;3.87;100.00;102901.38;5070203;28;20039;-76
2022/01/26 12:49:31;;;;;;;38.78;15.95;;;;;;;3.85;100.00;102896.19;5079153;28;20036;-75
2022/01/26 12:51:57;;;;;;;44.40;16.45;;;;;;;3.89;100.00;102881.25;5094318;28;20085;-75
2022/01/26 12:54:22;;;;;;;55.25;23.58;;;;;;;3.91;100.00;102887.28;5067215;28;20035;-76
2022/01/26 12:56:48;;;;;;;52.80;21.55;;;;;;;3.87;100.00;102878.69;5097390;28;20028;-76
2022/01/26 12:59:20;;;;;;;41.80;19.27;;;;;;;3.90;100.00;102877.75;5095489;28;20075;-75
2022/01/26 13:01:46;;;;;;;49.40;18.58;;;;;;;3.85;100.00;102853.56;5081747;28;20040;-75
2022/01/26 13:04:18;;;;;;;38.53;15.65;;;;;;;3.77;100.00;102860.81;5077328;28;20537;-75
2022/01/26 13:06:52;;;;;;;42.83;16.50;;;;;;;3.80;100.00;102868.56;5079227;28;20043;-76
2022/01/26 13:09:26;;;;;;;49.25;16.70;;;;;;;3.96;100.00;102868.81;5087028;28;20425;-77